Queen Victoria — ZCEF3 — position and weather

sailwx.info

Track history (hours):
 
Tides and Currents Weather Stations Pressure Air Temp Water Temp Dewpoint Dewpoint Depression Visibility Wind Speed Wind Dir Waves Ship Positions

Queen Victoria

Last reported at 2018-May-20 20:58 UTC. Time now 2018-May-20 21:26 UTC.
Position N 55°21' W 008°20'.

Length 294 m; draft 8 m.

Type: Passenger vessel. MMSI: 310624000.

Date/timePositionNaut miles runAvg speedWind from/ knotsBaromVisibWave heightAir tempDewpointWater temp
2018-May-20 20:58N 55°21' W 008°20'1014.7
2018-May-20 20:19N 55°13' W 008°30'3116.4
2018-May-20 18:26N 54°46' W 008°56'916.1
2018-May-20 17:52N 54°37' W 008°51'718.8
2018-May-20 17:30N 54°36' W 008°39'714.2
2018-May-20 16:59N 54°37' W 008°27'1 2.0
2018-May-20 16:28N 54°38' W 008°26'0 0.0
2018-May-20 15:55N 54°38' W 008°26'0 0.0
2018-May-20 15:28N 54°38' W 008°26'0 0.0
2018-May-20 14:55N 54°38' W 008°26'0 0.0
2018-May-20 14:25N 54°38' W 008°26'0 0.0
2018-May-20 13:58N 54°38' W 008°26'0 0.0
2018-May-20 13:28N 54°38' W 008°26'0 0.0
2018-May-20 12:55N 54°38' W 008°26'0 0.0
2018-May-20 12:16N 54°38' W 008°26'0 0.0
2018-May-20 11:58N 54°38' W 008°26'0 0.0
2018-May-20 11:22N 54°38' W 008°26'0 0.0
2018-May-20 10:58N 54°38' W 008°26'0 0.0
2018-May-20 10:25N 54°38' W 008°26'0 0.0
2018-May-20 09:59N 54°38' W 008°26'0 0.0
2018-May-20 09:29N 54°38' W 008°26'0 0.0
2018-May-20 08:58N 54°38' W 008°26'0 0.0
2018-May-20 08:28N 54°38' W 008°26'0 0.0
2018-May-20 07:49N 54°38' W 008°26'0 0.0
2018-May-20 07:25N 54°38' W 008°26'0 0.3
2018-May-20 06:58N 54°38' W 008°26'2 4.2
2018-May-20 06:26N 54°36' W 008°28'712.9
2018-May-20 05:55N 54°35' W 008°39'817.0
2018-May-20 05:26N 54°37' W 008°53'916.7
2018-May-20 04:55N 54°46' W 008°51'1416.9
2018-May-20 04:03N 54°59' W 008°41'219.6
2018-May-20 03:56N 55°01' W 008°40'1219.9
2018-May-20 03:19N 55°12' W 008°31'1020.1
2018-May-20 02:50N 55°21' W 008°24'720.2
2018-May-20 02:29N 55°28' W 008°19'1020.4
2018-May-20 02:00N 55°37' W 008°12'1020.4
2018-May-20 01:30N 55°46' W 008°04'6224.6
2018-May-19 23:00N 56°42' W 007°18'175 6.5 200 / 271011.410.8 10.7 9.310.0
2018-May-18 20:00N 58°43' W 003°21'918.0
2018-May-18 19:30N 58°43' W 003°04'917.7
2018-May-18 19:00N 58°45' W 002°47'918.6
2018-May-18 18:30N 58°50' W 002°33'713.8
2018-May-18 17:59N 58°58' W 002°34'816.5
2018-May-18 17:31N 59°00' W 002°49'5 9.5
2018-May-18 17:01N 59°01' W 002°58'1 1.3
2018-May-18 16:30N 59°00' W 002°59'0 0.0
2018-May-18 16:00N 59°00' W 002°59'0 0.0
2018-May-18 15:30N 59°00' W 002°59'0 0.0
2018-May-18 15:00N 59°00' W 002°59'0 0.0
2018-May-18 14:30N 59°00' W 002°59'0 0.0
2018-May-18 14:00N 59°00' W 002°59'0 0.0
2018-May-18 13:30N 59°00' W 002°59'0 0.0
2018-May-18 13:00N 59°00' W 002°59'0 0.0
2018-May-18 12:30N 59°00' W 002°59'0 0.0
2018-May-18 12:00N 59°00' W 002°59'0 0.0
2018-May-18 11:30N 59°00' W 002°59'0 0.0
2018-May-18 11:00N 59°00' W 002°59'0 0.0
2018-May-18 10:30N 59°00' W 002°59'0 0.0
2018-May-18 10:00N 59°00' W 002°59'0 0.0
2018-May-18 09:30N 59°00' W 002°59'0 0.0
2018-May-18 09:00N 59°00' W 002°59'0 0.0
2018-May-18 08:30N 59°00' W 002°59'0 0.0
2018-May-18 08:00N 59°00' W 002°59'0 0.0
2018-May-18 07:30N 59°00' W 002°59'0 0.0
2018-May-18 07:00N 59°00' W 002°59'0 0.0
2018-May-18 06:30N 59°00' W 002°59'1 1.3
2018-May-18 06:00N 59°00' W 002°57'4 8.8
2018-May-18 05:30N 59°00' W 002°49'612.3
2018-May-18 05:00N 58°60' W 002°37'612.1
2018-May-18 04:30N 58°60' W 002°25'611.7
2018-May-18 04:00N 59°05' W 002°20'511.0
2018-May-18 03:30N 59°10' W 002°16'611.3
2018-May-18 02:58N 59°16' W 002°12'7712.3
2018-May-17 20:43N 59°17' W 004°43'416.2
2018-May-17 20:30N 59°16' W 004°50'815.7
2018-May-17 20:00N 59°15' W 005°05'3511.7
2018-May-17 17:00N 58°42' W 005°30'8116.3 120 / 241026.910.8 8.0 3.310.0
2018-May-17 12:00N 57°30' W 006°42'39 7.9 200 / 131029.610.8 10.010.010.0
2018-May-17 07:00N 56°54' W 007°12'6014.2 100 / 161029.910.8 9.0 6.910.0
2018-May-17 02:46N 55°54' W 007°06'414.7
2018-May-17 02:30N 55°51' W 007°03'715.0
2018-May-17 02:01N 55°44' W 006°57'815.7
2018-May-17 01:31N 55°39' W 006°46'815.4
2018-May-17 01:01N 55°34' W 006°35'714.5
2018-May-17 00:31N 55°30' W 006°25'714.2
2018-May-17 00:00N 55°26' W 006°14'713.1
2018-May-16 23:30N 55°24' W 006°03'611.9
2018-May-16 23:00N 55°19' W 005°57'510.3
2018-May-16 22:30N 55°15' W 005°52'510.1
2018-May-16 22:00N 55°15' W 005°43'811.2
2018-May-16 21:16N 55°14' W 005°29'311.7
2018-May-16 21:01N 55°15' W 005°24'713.0
2018-May-16 20:28N 55°20' W 005°14'612.9
2018-May-16 20:01N 55°23' W 005°06'2112.8
2018-May-16 18:24N 55°44' W 004°59'513.2
2018-May-16 18:00N 55°49' W 004°58'714.8
2018-May-16 17:31N 55°56' W 004°55'510.7
2018-May-16 17:00N 55°58' W 004°46'0 0.3
2018-May-16 16:18N 55°57' W 004°46'0 0.0
2018-May-16 16:00N 55°57' W 004°46'0 0.0
2018-May-16 15:30N 55°57' W 004°46'0 0.0
2018-May-16 15:00N 55°57' W 004°46'0 0.0
2018-May-16 14:30N 55°57' W 004°46'0 0.0
2018-May-16 13:00N 55°57' W 004°46'0 0.0
2018-May-16 11:12N 55°57' W 004°46'0 0.0
2018-May-16 11:00N 55°57' W 004°46'0 0.0
2018-May-16 10:30N 55°57' W 004°46'0 0.0
2018-May-16 10:00N 55°57' W 004°46'0 0.0
2018-May-16 09:30N 55°57' W 004°46'0 0.0
2018-May-16 09:00N 55°57' W 004°46'0 0.0
2018-May-16 08:30N 55°57' W 004°46'0 0.0
2018-May-16 08:00N 55°57' W 004°46'0 0.7
2018-May-16 07:30N 55°58' W 004°46'3 6.7
2018-May-16 07:00N 55°57' W 004°52'713.2
2018-May-16 06:30N 55°51' W 004°56'816.9
2018-May-16 06:00N 55°43' W 004°59'611.6
2018-May-16 05:27N 55°37' W 004°59'2813.8
2018-May-16 03:26N 55°10' W 005°15'715.0
2018-May-16 02:58N 55°04' W 005°18'817.4
2018-May-16 02:30N 54°56' W 005°20'1020.4
2018-May-16 02:00N 54°46' W 005°18'1020.0
2018-May-16 01:30N 54°36' W 005°15'1019.5
2018-May-16 01:00N 54°26' W 005°13'918.2
2018-May-16 00:30N 54°17' W 005°18'918.6
2018-May-16 00:00N 54°09' W 005°25'918.6
2018-May-15 23:30N 54°00' W 005°31'918.4
2018-May-15 23:00N 53°52' W 005°36'918.3
2018-May-15 22:30N 53°43' W 005°42'2017.2
2018-May-15 21:19N 53°24' W 005°55'517.1
2018-May-15 21:00N 53°21' W 006°02'610.3
2018-May-15 20:27N 53°21' W 006°12'1 1.3
2018-May-15 19:50N 53°21' W 006°13'0 0.0
2018-May-15 19:08N 53°21' W 006°13'0 0.0
2018-May-15 18:44N 53°21' W 006°13'0 0.0
2018-May-15 09:40N 53°21' W 006°13'0 0.7
2018-May-15 09:29N 53°21' W 006°13'2 3.6
2018-May-15 08:59N 53°21' W 006°10'510.3
2018-May-15 08:30N 53°19' W 006°02'4 9.0
2018-May-15 08:00N 53°20' W 005°55'611.9
2018-May-15 07:30N 53°21' W 005°46'610.9
2018-May-15 07:00N 53°21' W 005°36'913.5
2018-May-15 06:20N 53°15' W 005°26'514.8
2018-May-15 06:00N 53°11' W 005°22'1912.7
2018-May-15 04:32N 52°52' W 005°22'113.4
2018-May-15 04:25N 52°51' W 005°23'713.0
2018-May-15 03:54N 52°44' W 005°28'2613.0
2018-May-15 01:54N 52°21' W 005°47'411.0
2018-May-15 01:30N 52°17' W 005°50'611.1
2018-May-15 01:00N 52°13' W 005°55'611.2
2018-May-15 00:30N 52°08' W 005°60'611.8
2018-May-15 00:00N 52°04' W 006°06'811.9
2018-May-14 23:21N 52°00' W 006°18'412.6
2018-May-14 23:00N 51°59' W 006°25'612.6
2018-May-14 22:30N 51°58' W 006°35'612.6
2018-May-14 22:01N 51°57' W 006°45'612.9
2018-May-14 21:31N 51°55' W 006°55'713.1
2018-May-14 21:00N 51°54' W 007°05'613.0
2018-May-14 20:31N 51°52' W 007°15'712.8
2018-May-14 20:00N 51°51' W 007°26'612.9
2018-May-14 19:30N 51°50' W 007°36'713.2
2018-May-14 19:01N 51°48' W 007°46'713.3
2018-May-14 18:30N 51°46' W 007°57'713.6
2018-May-14 18:00N 51°45' W 008°07'510.9
2018-May-14 17:31N 51°47' W 008°15'4 8.3
2018-May-14 17:00N 51°51' W 008°17'1 1.2
2018-May-14 16:28N 51°51' W 008°18'0 0.0
2018-May-14 15:58N 51°51' W 008°18'0 0.0
2018-May-14 15:28N 51°51' W 008°18'0 0.0
2018-May-14 14:58N 51°51' W 008°18'0 0.0
2018-May-14 14:25N 51°51' W 008°18'0 0.0
2018-May-14 13:58N 51°51' W 008°18'0 0.0
2018-May-14 13:28N 51°51' W 008°18'0 0.0
2018-May-14 12:58N 51°51' W 008°18'0 0.0
2018-May-14 12:25N 51°51' W 008°18'0 0.0
2018-May-14 11:55N 51°51' W 008°18'0 0.0
2018-May-14 11:28N 51°51' W 008°18'0 0.0
2018-May-14 10:58N 51°51' W 008°18'0 0.0
2018-May-14 10:28N 51°51' W 008°18'0 0.0
2018-May-14 09:58N 51°51' W 008°18'0 0.0
2018-May-14 09:19N 51°51' W 008°18'0 0.0
2018-May-14 08:58N 51°51' W 008°18'0 0.0
2018-May-14 08:28N 51°51' W 008°18'0 0.0
2018-May-14 07:58N 51°51' W 008°18'0 0.0
2018-May-14 07:28N 51°51' W 008°18'0 0.0
2018-May-14 06:58N 51°51' W 008°18'0 0.1
2018-May-14 06:30N 51°51' W 008°18'1 2.1
2018-May-14 06:00N 51°51' W 008°16'5 9.4
2018-May-14 05:30N 51°46' W 008°15'611.2
2018-May-14 05:01N 51°41' W 008°15'510.8
2018-May-14 04:30N 51°38' W 008°08'612.2
2018-May-14 04:00N 51°37' W 007°58'612.2
2018-May-14 03:30N 51°37' W 007°48'612.2
2018-May-14 03:00N 51°39' W 007°39'612.2
2018-May-14 02:30N 51°41' W 007°29'612.3
2018-May-14 02:00N 51°43' W 007°20'612.7
2018-May-14 01:30N 51°45' W 007°10'612.7
2018-May-14 01:00N 51°47' W 007°01'612.6
2018-May-14 00:30N 51°49' W 006°51'713.1
2018-May-14 00:00N 51°51' W 006°41'612.7
2018-May-13 23:30N 51°49' W 006°31'1834.4
2018-May-13 23:00N 51°36' W 006°12'13 6.8 230 / 141020.210.8 10.7 7.612.0
2018-May-13 21:08N 51°31' W 005°53'312.7
2018-May-13 20:55N 51°31' W 005°49'513.2
2018-May-13 20:30N 51°31' W 005°40'713.5
2018-May-13 20:01N 51°30' W 005°29'713.9
2018-May-13 19:31N 51°29' W 005°18'713.9
2018-May-13 19:01N 51°29' W 005°07'612.5
2018-May-13 18:30N 51°24' W 004°60'612.7
2018-May-13 18:00N 51°18' W 004°56'612.7
2018-May-13 17:30N 51°12' W 004°52'611.6
2018-May-13 17:00N 51°07' W 004°51'5359.5
2018-May-13 17:00N 51°12' W 004°54'1020.6 290 / 141018.410.8 12.0-0.212.0
2018-May-13 16:30N 51°03' W 004°59'713.0
2018-May-13 16:00N 50°57' W 005°05'713.8
2018-May-13 15:30N 50°52' W 005°12'713.9
2018-May-13 15:00N 50°47' W 005°19'6357.2
2018-May-13 15:00N 50°42' W 005°24'2 3.4 300 / 71018.510.8 11.0 4.312.0
2018-May-13 14:30N 50°41' W 005°26'713.8
2018-May-13 14:00N 50°36' W 005°34'713.7
2018-May-13 13:30N 50°31' W 005°41'713.7
2018-May-13 13:00N 50°26' W 005°48'913.1
2018-May-13 12:21N 50°18' W 005°54'2569.8
2018-May-13 12:00N 49°54' W 005°48'32 6.5 300 / 101018.210.8 10.2 4.112.0
2018-May-13 07:08N 49°51' W 004°59'213.1
2018-May-13 07:00N 49°51' W 004°57'813.0
2018-May-13 06:25N 49°54' W 004°46'612.7
2018-May-13 05:58N 49°56' W 004°38'612.6
2018-May-13 05:30N 49°57' W 004°29'712.5
2018-May-13 04:59N 49°59' W 004°19'612.2
2018-May-13 04:29N 50°01' W 004°10'612.1
2018-May-13 04:00N 50°02' W 004°01'612.2
2018-May-13 03:30N 50°05' W 003°53'612.3
2018-May-13 03:00N 50°06' W 003°43'612.6
2018-May-13 02:30N 50°06' W 003°33'612.9
2018-May-13 02:00N 50°08' W 003°24'713.4
2018-May-13 01:30N 50°09' W 003°13'714.0
2018-May-13 01:00N 50°11' W 003°03'714.4
2018-May-13 00:30N 50°13' W 002°52'714.9
2018-May-13 00:00N 50°14' W 002°40'815.2
2018-May-12 23:30N 50°16' W 002°29'815.4
2018-May-12 22:59N 50°18' W 002°17'1114.9
2018-May-12 22:13N 50°20' W 001°59'514.1
2018-May-12 21:51N 50°22' W 001°51'513.7
2018-May-12 21:28N 50°23' W 001°43'713.0
2018-May-12 20:56N 50°24' W 001°33'512.2
2018-May-12 20:30N 50°26' W 001°25'611.4
2018-May-12 19:59N 50°28' W 001°16'510.4
2018-May-12 19:30N 50°30' W 001°09'510.2
2018-May-12 19:00N 50°33' W 001°02'510.9
2018-May-12 18:30N 50°38' W 000°59'5 9.2
2018-May-12 18:00N 50°43' W 000°60'714.7
2018-May-12 17:31N 50°46' W 001°11'510.4
2018-May-12 17:01N 50°48' W 001°18'5 9.2
2018-May-12 16:30N 50°52' W 001°22'3 6.6
2018-May-12 16:00N 50°54' W 001°26'0 0.0
2018-May-12 15:29N 50°54' W 001°26'0 0.0
2018-May-12 14:59N 50°54' W 001°26'0 0.0
2018-May-12 14:29N 50°54' W 001°26'0 0.0
2018-May-12 13:59N 50°54' W 001°26'0 0.0
2018-May-12 13:29N 50°54' W 001°26'0 0.0
2018-May-12 12:59N 50°54' W 001°26'0 0.0
2018-May-12 12:29N 50°54' W 001°26'0 0.0
2018-May-12 11:59N 50°54' W 001°26'0 0.0
2018-May-12 11:29N 50°54' W 001°26'0 0.0
2018-May-12 10:59N 50°54' W 001°26'0 0.0
2018-May-12 10:29N 50°54' W 001°26'0 0.0
2018-May-12 09:59N 50°54' W 001°26'0 0.0
2018-May-12 09:29N 50°54' W 001°26'0 0.0
2018-May-12 08:59N 50°54' W 001°26'0 0.0
2018-May-12 08:29N 50°54' W 001°26'0 0.0
2018-May-12 07:59N 50°54' W 001°26'0 0.0
2018-May-12 07:29N 50°54' W 001°26'0 0.0
2018-May-12 06:59N 50°54' W 001°26'0 0.0
2018-May-12 06:29N 50°54' W 001°26'0 0.1
2018-May-12 06:00N 50°54' W 001°26'0 0.7
2018-May-12 05:30N 50°54' W 001°26'2 4.8
2018-May-12 05:01N 50°53' W 001°23'5 9.3
2018-May-12 04:31N 50°49' W 001°18'4 7.7
2018-May-12 04:00N 50°46' W 001°15'816.8
2018-May-12 03:30N 50°44' W 001°02'713.6
2018-May-12 03:00N 50°39' W 000°55'611.9
2018-May-12 02:30N 50°37' W 000°46'612.5
2018-May-12 02:00N 50°35' W 000°36'612.7
2018-May-12 01:30N 50°34' W 000°27'815.5
2018-May-12 01:00N 50°33' W 000°15'816.3
2018-May-12 00:30N 50°32' W 000°02'816.0
2018-May-12 00:00N 50°33' E 000°11'815.9
2018-May-11 23:30N 50°35' E 000°23'815.4
2018-May-11 23:00N 50°37' E 000°34'815.4
2018-May-11 22:30N 50°41' E 000°45'815.3
2018-May-11 22:00N 50°46' E 000°55'714.6
2018-May-11 21:30N 50°50' E 001°04'714.3
2018-May-11 21:00N 50°53' E 001°14'713.8
2018-May-11 20:30N 50°58' E 001°22'714.4
2018-May-11 20:00N 51°03' E 001°30'714.8
2018-May-11 19:30N 51°09' E 001°38'815.2
2018-May-11 19:00N 51°15' E 001°45'816.4
2018-May-11 18:30N 51°22' E 001°51'816.9
2018-May-11 18:00N 51°30' E 001°57'917.1
2018-May-11 17:30N 51°37' E 002°03'917.1
2018-May-11 17:00N 51°45' E 002°08'11653.6
2018-May-11 17:00N 51°36' E 002°00'1939.0 090 / 181015.110.8 11.5 7.412.0
2018-May-11 16:30N 51°53' E 002°14'816.4
2018-May-11 16:00N 52°01' E 002°16'1315.9
2018-May-11 15:13N 52°13' E 002°19'715.2
2018-May-11 14:44N 52°21' E 002°20'314.8
2018-May-11 14:30N 52°24' E 002°21'714.8
2018-May-11 14:00N 52°31' E 002°22'714.2
2018-May-11 13:30N 52°38' E 002°24'713.8
2018-May-11 13:00N 52°45' E 002°26'713.8
2018-May-11 12:30N 52°52' E 002°28'713.4
2018-May-11 12:00N 52°59' E 002°30'713.3
2018-May-11 11:30N 53°05' E 002°31'816.1
2018-May-11 10:59N 53°13' E 002°35'917.8
2018-May-11 10:30N 53°21' E 002°40'1018.1
2018-May-11 09:58N 53°30' E 002°47'7418.7
2018-May-11 06:00N 54°42' E 003°18'   180 / 131020.010.8 10.0 6.811.0
Track history (hours):
 
Tides and Currents Weather Stations Pressure Air Temp Water Temp Dewpoint Dewpoint Depression Visibility Wind Speed Wind Dir Waves Ship Positions

Queen Victoria

Last reported at 2018-May-20 20:58 UTC. Time now 2018-May-20 21:26 UTC.
Position N 55°21' W 008°20'.

Length 294 m; draft 8 m.

Type: Passenger vessel. MMSI: 310624000.

Date/timePositionNaut miles runAvg speedWind from/ knotsBaromVisibWave heightAir tempDewpointWater temp
2018-May-20 20:58N 55°21' W 008°20'1014.7
2018-May-20 20:19N 55°13' W 008°30'3116.4
2018-May-20 18:26N 54°46' W 008°56'916.1
2018-May-20 17:52N 54°37' W 008°51'718.8
2018-May-20 17:30N 54°36' W 008°39'714.2
2018-May-20 16:59N 54°37' W 008°27'1 2.0
2018-May-20 16:28N 54°38' W 008°26'0 0.0
2018-May-20 15:55N 54°38' W 008°26'0 0.0
2018-May-20 15:28N 54°38' W 008°26'0 0.0
2018-May-20 14:55N 54°38' W 008°26'0 0.0
2018-May-20 14:25N 54°38' W 008°26'0 0.0
2018-May-20 13:58N 54°38' W 008°26'0 0.0
2018-May-20 13:28N 54°38' W 008°26'0 0.0
2018-May-20 12:55N 54°38' W 008°26'0 0.0
2018-May-20 12:16N 54°38' W 008°26'0 0.0
2018-May-20 11:58N 54°38' W 008°26'0 0.0
2018-May-20 11:22N 54°38' W 008°26'0 0.0
2018-May-20 10:58N 54°38' W 008°26'0 0.0
2018-May-20 10:25N 54°38' W 008°26'0 0.0
2018-May-20 09:59N 54°38' W 008°26'0 0.0
2018-May-20 09:29N 54°38' W 008°26'0 0.0
2018-May-20 08:58N 54°38' W 008°26'0 0.0
2018-May-20 08:28N 54°38' W 008°26'0 0.0
2018-May-20 07:49N 54°38' W 008°26'0 0.0
2018-May-20 07:25N 54°38' W 008°26'0 0.3
2018-May-20 06:58N 54°38' W 008°26'2 4.2
2018-May-20 06:26N 54°36' W 008°28'712.9
2018-May-20 05:55N 54°35' W 008°39'817.0
2018-May-20 05:26N 54°37' W 008°53'916.7
2018-May-20 04:55N 54°46' W 008°51'1416.9
2018-May-20 04:03N 54°59' W 008°41'219.6
2018-May-20 03:56N 55°01' W 008°40'1219.9
2018-May-20 03:19N 55°12' W 008°31'1020.1
2018-May-20 02:50N 55°21' W 008°24'720.2
2018-May-20 02:29N 55°28' W 008°19'1020.4
2018-May-20 02:00N 55°37' W 008°12'1020.4
2018-May-20 01:30N 55°46' W 008°04'6224.6
2018-May-19 23:00N 56°42' W 007°18'175 6.5 200 / 271011.410.8 10.7 9.310.0
2018-May-18 20:00N 58°43' W 003°21'918.0
2018-May-18 19:30N 58°43' W 003°04'917.7
2018-May-18 19:00N 58°45' W 002°47'918.6
2018-May-18 18:30N 58°50' W 002°33'713.8
2018-May-18 17:59N 58°58' W 002°34'816.5
2018-May-18 17:31N 59°00' W 002°49'5 9.5
2018-May-18 17:01N 59°01' W 002°58'1 1.3
2018-May-18 16:30N 59°00' W 002°59'0 0.0
2018-May-18 16:00N 59°00' W 002°59'0 0.0
2018-May-18 15:30N 59°00' W 002°59'0 0.0
2018-May-18 15:00N 59°00' W 002°59'0 0.0
2018-May-18 14:30N 59°00' W 002°59'0 0.0
2018-May-18 14:00N 59°00' W 002°59'0 0.0
2018-May-18 13:30N 59°00' W 002°59'0 0.0
2018-May-18 13:00N 59°00' W 002°59'0 0.0
2018-May-18 12:30N 59°00' W 002°59'0 0.0
2018-May-18 12:00N 59°00' W 002°59'0 0.0
2018-May-18 11:30N 59°00' W 002°59'0 0.0
2018-May-18 11:00N 59°00' W 002°59'0 0.0
2018-May-18 10:30N 59°00' W 002°59'0 0.0
2018-May-18 10:00N 59°00' W 002°59'0 0.0
2018-May-18 09:30N 59°00' W 002°59'0 0.0
2018-May-18 09:00N 59°00' W 002°59'0 0.0
2018-May-18 08:30N 59°00' W 002°59'0 0.0
2018-May-18 08:00N 59°00' W 002°59'0 0.0
2018-May-18 07:30N 59°00' W 002°59'0 0.0
2018-May-18 07:00N 59°00' W 002°59'0 0.0
2018-May-18 06:30N 59°00' W 002°59'1 1.3
2018-May-18 06:00N 59°00' W 002°57'4 8.8
2018-May-18 05:30N 59°00' W 002°49'612.3
2018-May-18 05:00N 58°60' W 002°37'612.1
2018-May-18 04:30N 58°60' W 002°25'611.7
2018-May-18 04:00N 59°05' W 002°20'511.0
2018-May-18 03:30N 59°10' W 002°16'611.3
2018-May-18 02:58N 59°16' W 002°12'7712.3
2018-May-17 20:43N 59°17' W 004°43'416.2
2018-May-17 20:30N 59°16' W 004°50'815.7
2018-May-17 20:00N 59°15' W 005°05'3511.7
2018-May-17 17:00N 58°42' W 005°30'8116.3 120 / 241026.910.8 8.0 3.310.0
2018-May-17 12:00N 57°30' W 006°42'39 7.9 200 / 131029.610.8 10.010.010.0
2018-May-17 07:00N 56°54' W 007°12'6014.2 100 / 161029.910.8 9.0 6.910.0
2018-May-17 02:46N 55°54' W 007°06'414.7
2018-May-17 02:30N 55°51' W 007°03'715.0
2018-May-17 02:01N 55°44' W 006°57'815.7
2018-May-17 01:31N 55°39' W 006°46'815.4
2018-May-17 01:01N 55°34' W 006°35'714.5
2018-May-17 00:31N 55°30' W 006°25'714.2
2018-May-17 00:00N 55°26' W 006°14'713.1
2018-May-16 23:30N 55°24' W 006°03'611.9
2018-May-16 23:00N 55°19' W 005°57'510.3
2018-May-16 22:30N 55°15' W 005°52'510.1
2018-May-16 22:00N 55°15' W 005°43'811.2
2018-May-16 21:16N 55°14' W 005°29'311.7
2018-May-16 21:01N 55°15' W 005°24'713.0
2018-May-16 20:28N 55°20' W 005°14'612.9
2018-May-16 20:01N 55°23' W 005°06'2112.8
2018-May-16 18:24N 55°44' W 004°59'513.2
2018-May-16 18:00N 55°49' W 004°58'714.8
2018-May-16 17:31N 55°56' W 004°55'510.7
2018-May-16 17:00N 55°58' W 004°46'0 0.3
2018-May-16 16:18N 55°57' W 004°46'0 0.0
2018-May-16 16:00N 55°57' W 004°46'0 0.0
2018-May-16 15:30N 55°57' W 004°46'0 0.0
2018-May-16 15:00N 55°57' W 004°46'0 0.0
2018-May-16 14:30N 55°57' W 004°46'0 0.0
2018-May-16 13:00N 55°57' W 004°46'0 0.0
2018-May-16 11:12N 55°57' W 004°46'0 0.0
2018-May-16 11:00N 55°57' W 004°46'0 0.0
2018-May-16 10:30N 55°57' W 004°46'0 0.0
2018-May-16 10:00N 55°57' W 004°46'0 0.0
2018-May-16 09:30N 55°57' W 004°46'0 0.0
2018-May-16 09:00N 55°57' W 004°46'0 0.0
2018-May-16 08:30N 55°57' W 004°46'0 0.0
2018-May-16 08:00N 55°57' W 004°46'0 0.7
2018-May-16 07:30N 55°58' W 004°46'3 6.7
2018-May-16 07:00N 55°57' W 004°52'713.2
2018-May-16 06:30N 55°51' W 004°56'816.9
2018-May-16 06:00N 55°43' W 004°59'611.6
2018-May-16 05:27N 55°37' W 004°59'2813.8
2018-May-16 03:26N 55°10' W 005°15'715.0
2018-May-16 02:58N 55°04' W 005°18'817.4
2018-May-16 02:30N 54°56' W 005°20'1020.4
2018-May-16 02:00N 54°46' W 005°18'1020.0
2018-May-16 01:30N 54°36' W 005°15'1019.5
2018-May-16 01:00N 54°26' W 005°13'918.2
2018-May-16 00:30N 54°17' W 005°18'918.6
2018-May-16 00:00N 54°09' W 005°25'918.6
2018-May-15 23:30N 54°00' W 005°31'918.4
2018-May-15 23:00N 53°52' W 005°36'918.3
2018-May-15 22:30N 53°43' W 005°42'2017.2
2018-May-15 21:19N 53°24' W 005°55'517.1
2018-May-15 21:00N 53°21' W 006°02'610.3
2018-May-15 20:27N 53°21' W 006°12'1 1.3
2018-May-15 19:50N 53°21' W 006°13'0 0.0
2018-May-15 19:08N 53°21' W 006°13'0 0.0
2018-May-15 18:44N 53°21' W 006°13'0 0.0
2018-May-15 09:40N 53°21' W 006°13'0 0.7
2018-May-15 09:29N 53°21' W 006°13'2 3.6
2018-May-15 08:59N 53°21' W 006°10'510.3
2018-May-15 08:30N 53°19' W 006°02'4 9.0
2018-May-15 08:00N 53°20' W 005°55'611.9
2018-May-15 07:30N 53°21' W 005°46'610.9
2018-May-15 07:00N 53°21' W 005°36'913.5
2018-May-15 06:20N 53°15' W 005°26'514.8
2018-May-15 06:00N 53°11' W 005°22'1912.7
2018-May-15 04:32N 52°52' W 005°22'113.4
2018-May-15 04:25N 52°51' W 005°23'713.0
2018-May-15 03:54N 52°44' W 005°28'2613.0
2018-May-15 01:54N 52°21' W 005°47'411.0
2018-May-15 01:30N 52°17' W 005°50'611.1
2018-May-15 01:00N 52°13' W 005°55'611.2
2018-May-15 00:30N 52°08' W 005°60'611.8
2018-May-15 00:00N 52°04' W 006°06'811.9
2018-May-14 23:21N 52°00' W 006°18'412.6
2018-May-14 23:00N 51°59' W 006°25'612.6
2018-May-14 22:30N 51°58' W 006°35'612.6
2018-May-14 22:01N 51°57' W 006°45'612.9
2018-May-14 21:31N 51°55' W 006°55'713.1
2018-May-14 21:00N 51°54' W 007°05'613.0
2018-May-14 20:31N 51°52' W 007°15'712.8
2018-May-14 20:00N 51°51' W 007°26'612.9
2018-May-14 19:30N 51°50' W 007°36'713.2
2018-May-14 19:01N 51°48' W 007°46'713.3
2018-May-14 18:30N 51°46' W 007°57'713.6
2018-May-14 18:00N 51°45' W 008°07'510.9
2018-May-14 17:31N 51°47' W 008°15'4 8.3
2018-May-14 17:00N 51°51' W 008°17'1 1.2
2018-May-14 16:28N 51°51' W 008°18'0 0.0
2018-May-14 15:58N 51°51' W 008°18'0 0.0
2018-May-14 15:28N 51°51' W 008°18'0 0.0
2018-May-14 14:58N 51°51' W 008°18'0 0.0
2018-May-14 14:25N 51°51' W 008°18'0 0.0
2018-May-14 13:58N 51°51' W 008°18'0 0.0
2018-May-14 13:28N 51°51' W 008°18'0 0.0
2018-May-14 12:58N 51°51' W 008°18'0 0.0
2018-May-14 12:25N 51°51' W 008°18'0 0.0
2018-May-14 11:55N 51°51' W 008°18'0 0.0
2018-May-14 11:28N 51°51' W 008°18'0 0.0
2018-May-14 10:58N 51°51' W 008°18'0 0.0
2018-May-14 10:28N 51°51' W 008°18'0 0.0
2018-May-14 09:58N 51°51' W 008°18'0 0.0
2018-May-14 09:19N 51°51' W 008°18'0 0.0
2018-May-14 08:58N 51°51' W 008°18'0 0.0
2018-May-14 08:28N 51°51' W 008°18'0 0.0
2018-May-14 07:58N 51°51' W 008°18'0 0.0
2018-May-14 07:28N 51°51' W 008°18'0 0.0
2018-May-14 06:58N 51°51' W 008°18'0 0.1
2018-May-14 06:30N 51°51' W 008°18'1 2.1
2018-May-14 06:00N 51°51' W 008°16'5 9.4
2018-May-14 05:30N 51°46' W 008°15'611.2
2018-May-14 05:01N 51°41' W 008°15'510.8
2018-May-14 04:30N 51°38' W 008°08'612.2
2018-May-14 04:00N 51°37' W 007°58'612.2
2018-May-14 03:30N 51°37' W 007°48'612.2
2018-May-14 03:00N 51°39' W 007°39'612.2
2018-May-14 02:30N 51°41' W 007°29'612.3
2018-May-14 02:00N 51°43' W 007°20'612.7
2018-May-14 01:30N 51°45' W 007°10'612.7
2018-May-14 01:00N 51°47' W 007°01'612.6
2018-May-14 00:30N 51°49' W 006°51'713.1
2018-May-14 00:00N 51°51' W 006°41'612.7
2018-May-13 23:30N 51°49' W 006°31'1834.4
2018-May-13 23:00N 51°36' W 006°12'13 6.8 230 / 141020.210.8 10.7 7.612.0
2018-May-13 21:08N 51°31' W 005°53'312.7
2018-May-13 20:55N 51°31' W 005°49'513.2
2018-May-13 20:30N 51°31' W 005°40'713.5
2018-May-13 20:01N 51°30' W 005°29'713.9
2018-May-13 19:31N 51°29' W 005°18'713.9
2018-May-13 19:01N 51°29' W 005°07'612.5
2018-May-13 18:30N 51°24' W 004°60'612.7
2018-May-13 18:00N 51°18' W 004°56'612.7
2018-May-13 17:30N 51°12' W 004°52'611.6
2018-May-13 17:00N 51°07' W 004°51'5359.5
2018-May-13 17:00N 51°12' W 004°54'1020.6 290 / 141018.410.8 12.0-0.212.0
2018-May-13 16:30N 51°03' W 004°59'713.0
2018-May-13 16:00N 50°57' W 005°05'713.8
2018-May-13 15:30N 50°52' W 005°12'713.9
2018-May-13 15:00N 50°47' W 005°19'6357.2
2018-May-13 15:00N 50°42' W 005°24'2 3.4 300 / 71018.510.8 11.0 4.312.0
2018-May-13 14:30N 50°41' W 005°26'713.8
2018-May-13 14:00N 50°36' W 005°34'713.7
2018-May-13 13:30N 50°31' W 005°41'713.7
2018-May-13 13:00N 50°26' W 005°48'913.1
2018-May-13 12:21N 50°18' W 005°54'2569.8
2018-May-13 12:00N 49°54' W 005°48'32 6.5 300 / 101018.210.8 10.2 4.112.0
2018-May-13 07:08N 49°51' W 004°59'213.1
2018-May-13 07:00N 49°51' W 004°57'813.0
2018-May-13 06:25N 49°54' W 004°46'612.7
2018-May-13 05:58N 49°56' W 004°38'612.6
2018-May-13 05:30N 49°57' W 004°29'712.5
2018-May-13 04:59N 49°59' W 004°19'612.2
2018-May-13 04:29N 50°01' W 004°10'612.1
2018-May-13 04:00N 50°02' W 004°01'612.2
2018-May-13 03:30N 50°05' W 003°53'612.3
2018-May-13 03:00N 50°06' W 003°43'612.6
2018-May-13 02:30N 50°06' W 003°33'612.9
2018-May-13 02:00N 50°08' W 003°24'713.4
2018-May-13 01:30N 50°09' W 003°13'714.0
2018-May-13 01:00N 50°11' W 003°03'714.4
2018-May-13 00:30N 50°13' W 002°52'714.9
2018-May-13 00:00N 50°14' W 002°40'815.2
2018-May-12 23:30N 50°16' W 002°29'815.4
2018-May-12 22:59N 50°18' W 002°17'1114.9
2018-May-12 22:13N 50°20' W 001°59'514.1
2018-May-12 21:51N 50°22' W 001°51'513.7
2018-May-12 21:28N 50°23' W 001°43'713.0
2018-May-12 20:56N 50°24' W 001°33'512.2
2018-May-12 20:30N 50°26' W 001°25'611.4
2018-May-12 19:59N 50°28' W 001°16'510.4
2018-May-12 19:30N 50°30' W 001°09'510.2
2018-May-12 19:00N 50°33' W 001°02'510.9
2018-May-12 18:30N 50°38' W 000°59'5 9.2
2018-May-12 18:00N 50°43' W 000°60'714.7
2018-May-12 17:31N 50°46' W 001°11'510.4
2018-May-12 17:01N 50°48' W 001°18'5 9.2
2018-May-12 16:30N 50°52' W 001°22'3 6.6
2018-May-12 16:00N 50°54' W 001°26'0 0.0
2018-May-12 15:29N 50°54' W 001°26'0 0.0
2018-May-12 14:59N 50°54' W 001°26'0 0.0
2018-May-12 14:29N 50°54' W 001°26'0 0.0
2018-May-12 13:59N 50°54' W 001°26'0 0.0
2018-May-12 13:29N 50°54' W 001°26'0 0.0
2018-May-12 12:59N 50°54' W 001°26'0 0.0
2018-May-12 12:29N 50°54' W 001°26'0 0.0
2018-May-12 11:59N 50°54' W 001°26'0 0.0
2018-May-12 11:29N 50°54' W 001°26'0 0.0
2018-May-12 10:59N 50°54' W 001°26'0 0.0
2018-May-12 10:29N 50°54' W 001°26'0 0.0
2018-May-12 09:59N 50°54' W 001°26'0 0.0
2018-May-12 09:29N 50°54' W 001°26'0 0.0
2018-May-12 08:59N 50°54' W 001°26'0 0.0
2018-May-12 08:29N 50°54' W 001°26'0 0.0
2018-May-12 07:59N 50°54' W 001°26'0 0.0
2018-May-12 07:29N 50°54' W 001°26'0 0.0
2018-May-12 06:59N 50°54' W 001°26'0 0.0
2018-May-12 06:29N 50°54' W 001°26'0 0.1
2018-May-12 06:00N 50°54' W 001°26'0 0.7
2018-May-12 05:30N 50°54' W 001°26'2 4.8
2018-May-12 05:01N 50°53' W 001°23'5 9.3
2018-May-12 04:31N 50°49' W 001°18'4 7.7
2018-May-12 04:00N 50°46' W 001°15'816.8
2018-May-12 03:30N 50°44' W 001°02'713.6
2018-May-12 03:00N 50°39' W 000°55'611.9
2018-May-12 02:30N 50°37' W 000°46'612.5
2018-May-12 02:00N 50°35' W 000°36'612.7
2018-May-12 01:30N 50°34' W 000°27'815.5
2018-May-12 01:00N 50°33' W 000°15'816.3
2018-May-12 00:30N 50°32' W 000°02'816.0
2018-May-12 00:00N 50°33' E 000°11'815.9
2018-May-11 23:30N 50°35' E 000°23'815.4
2018-May-11 23:00N 50°37' E 000°34'815.4
2018-May-11 22:30N 50°41' E 000°45'815.3
2018-May-11 22:00N 50°46' E 000°55'714.6
2018-May-11 21:30N 50°50' E 001°04'714.3
2018-May-11 21:00N 50°53' E 001°14'713.8
2018-May-11 20:30N 50°58' E 001°22'714.4
2018-May-11 20:00N 51°03' E 001°30'714.8
2018-May-11 19:30N 51°09' E 001°38'815.2
2018-May-11 19:00N 51°15' E 001°45'816.4
2018-May-11 18:30N 51°22' E 001°51'816.9
2018-May-11 18:00N 51°30' E 001°57'917.1
2018-May-11 17:30N 51°37' E 002°03'917.1
2018-May-11 17:00N 51°45' E 002°08'11653.6
2018-May-11 17:00N 51°36' E 002°00'1939.0 090 / 181015.110.8 11.5 7.412.0
2018-May-11 16:30N 51°53' E 002°14'816.4
2018-May-11 16:00N 52°01' E 002°16'1315.9
2018-May-11 15:13N 52°13' E 002°19'715.2
2018-May-11 14:44N 52°21' E 002°20'314.8
2018-May-11 14:30N 52°24' E 002°21'714.8
2018-May-11 14:00N 52°31' E 002°22'714.2
2018-May-11 13:30N 52°38' E 002°24'713.8
2018-May-11 13:00N 52°45' E 002°26'713.8
2018-May-11 12:30N 52°52' E 002°28'713.4
2018-May-11 12:00N 52°59' E 002°30'713.3
2018-May-11 11:30N 53°05' E 002°31'816.1
2018-May-11 10:59N 53°13' E 002°35'917.8
2018-May-11 10:30N 53°21' E 002°40'1018.1
2018-May-11 09:58N 53°30' E 002°47'7418.7
2018-May-11 06:00N 54°42' E 003°18'   180 / 131020.010.8 10.0 6.811.0

Dump ship's entire track history